Time;durP1;ratioP1;P1;durP2;ratioP2;P2;SDS_P1;SDS_P2;PMS_P1;PMS_P2;Temp;Humidity;BMP_temperature;BMP_pressure;BME280_temperature;BME280_humidity;BME280_pressure;Samples;Min_cycle;Max_cycle;Signal;HPM_P1;HPM_P2
2021/11/19 00:00:10;;;;;;;1.70;0.93;;;0.40;1.40;;;1.37;100.00;96699.30;648473;216;31598;-73
2021/11/19 00:02:52;;;;;;;1.80;1.70;;;0.40;1.40;;;1.28;100.00;96697.59;644953;216;31967;-72
2021/11/19 00:05:37;;;;;;;1.40;0.50;;;0.20;1.40;;;1.28;100.00;96699.86;647206;216;31494;-71
2021/11/19 00:08:19;;;;;;;2.17;1.10;;;0.30;1.40;;;1.24;100.00;96698.23;647279;212;31589;-72
2021/11/19 00:11:00;;;;;;;1.70;1.05;;;0.30;1.40;;;1.13;100.00;96699.78;645836;212;31740;-73
2021/11/19 00:13:44;;;;;;;2.45;1.02;;;0.10;1.40;;;1.24;100.00;96699.58;647956;212;31540;-73
2021/11/19 00:16:27;;;;;;;3.53;1.15;;;0.20;1.40;;;1.21;100.00;96697.77;647896;212;42152;-72
2021/11/19 00:19:11;;;;;;;0.95;0.62;;;0.30;1.40;;;1.12;100.00;96702.73;617978;226;32303;-73
2021/11/19 00:21:52;;;;;;;2.33;1.00;;;0.20;1.40;;;1.01;100.00;96708.23;618323;222;42708;-73
2021/11/19 00:24:34;;;;;;;0.75;0.70;;;-0.10;1.40;;;0.83;100.00;96706.36;618461;226;32587;-73
2021/11/19 00:27:19;;;;;;;1.80;1.30;;;-0.20;1.40;;;0.82;100.00;96716.05;632112;221;31716;-73
2021/11/19 00:30:00;;;;;;;1.70;1.60;;;-0.10;1.40;;;0.81;100.00;96717.55;646621;216;31563;-72
2021/11/19 00:32:42;;;;;;;1.50;0.88;;;-0.10;1.40;;;0.91;100.00;96721.91;646461;212;31504;-71
2021/11/19 00:35:52;;;;;;;2.20;1.40;;;0.00;1.40;;;0.71;100.00;96725.78;646268;212;31563;-73
2021/11/19 00:38:37;;;;;;;1.20;1.00;;;-0.10;1.40;;;0.80;100.00;96723.17;646613;216;31550;-73
2021/11/19 00:41:18;;;;;;;1.40;1.30;;;0.00;1.40;;;0.90;100.00;96729.58;645646;216;31864;-73
2021/11/19 00:44:00;;;;;;;1.20;1.10;;;0.10;1.40;;;1.16;100.00;96732.80;646634;212;31592;-73
2021/11/19 00:46:41;;;;;;;1.85;1.75;;;0.30;1.40;;;1.20;100.00;96735.34;646292;212;31547;-72
2021/11/19 00:49:24;;;;;;;1.80;1.00;;;0.30;1.40;;;1.11;100.00;96734.02;644587;216;31950;-73
2021/11/19 00:52:06;;;;;;;3.25;1.58;;;0.20;1.40;;;1.27;100.00;96733.84;646769;216;31878;-71
2021/11/19 00:54:50;;;;;;;0.93;0.88;;;0.40;1.40;;;1.38;100.00;96724.91;647324;216;31591;-72
2021/11/19 00:57:32;;;;;;;0.60;0.60;;;0.60;1.40;;;1.47;100.00;96722.44;647375;212;31501;-73
2021/11/19 01:00:14;;;;;;;0.80;0.80;;;0.70;1.40;;;1.50;100.00;96719.01;647530;216;31577;-73
2021/11/19 01:02:56;;;;;;;3.08;1.60;;;0.70;1.40;;;1.53;100.00;96716.70;646449;216;31659;-72
2021/11/19 01:05:37;;;;;;;1.33;1.05;;;0.80;1.40;;;1.46;100.00;96712.28;618667;222;32578;-73
2021/11/19 01:08:19;;;;;;;2.60;1.90;;;0.60;1.40;;;1.33;100.00;96714.41;646899;212;31621;-71
2021/11/19 01:11:01;;;;;;;3.00;1.30;;;0.40;1.40;;;1.20;100.00;96711.72;646172;212;31677;-73
2021/11/19 01:13:42;;;;;;;1.20;1.10;;;0.20;1.40;;;1.16;100.00;96714.05;646302;216;31752;-73
2021/11/19 01:16:24;;;;;;;2.55;1.87;;;-0.10;1.40;;;0.94;100.00;96711.94;647400;216;32203;-73
2021/11/19 01:21:52;;;;;;;1.35;1.25;;;-0.40;1.40;;;0.66;100.00;96715.27;645610;212;31636;-73
2021/11/19 01:24:34;;;;;;;1.60;1.50;;;-0.20;1.40;;;0.79;100.00;96711.77;645941;216;31579;-73
2021/11/19 01:27:16;;;;;;;2.00;1.10;;;0.00;1.40;;;1.02;100.00;96713.83;620157;222;31947;-73
2021/11/19 01:29:57;;;;;;;1.90;0.70;;;0.30;1.40;;;1.21;100.00;96714.53;646589;213;42176;-71
2021/11/19 01:32:39;;;;;;;1.30;1.20;;;0.50;1.40;;;1.30;100.00;96718.08;646520;216;31534;-71
2021/11/19 01:35:54;;;;;;;3.00;1.90;;;0.70;1.40;;;1.45;100.00;96709.28;645656;216;31575;-71
2021/11/19 01:38:36;;;;;;;1.80;1.70;;;0.80;1.40;;;1.45;100.00;96708.18;647668;212;31615;-72
2021/11/19 01:41:19;;;;;;;0.80;0.80;;;0.70;1.40;;;1.52;100.00;96716.62;648103;216;31662;-71
2021/11/19 01:44:01;;;;;;;1.75;1.65;;;0.80;1.40;;;1.50;100.00;96713.11;645738;212;31662;-73
2021/11/19 01:46:42;;;;;;;1.23;1.00;;;0.80;1.40;;;1.42;100.00;96715.23;618753;222;32134;-73
2021/11/19 01:49:24;;;;;;;0.95;0.95;;;0.70;1.40;;;1.39;100.00;96709.07;619178;226;31914;-71
2021/11/19 01:52:14;;;;;;;1.80;0.82;;;0.70;1.40;;;1.40;100.00;96710.34;646632;216;31723;-73
2021/11/19 01:54:59;;;;;;;2.10;2.00;;;0.70;1.40;;;1.43;100.00;96713.75;646211;212;31648;-74
2021/11/19 01:57:44;;;;;;;1.90;1.00;;;0.70;1.40;;;1.43;100.00;96712.66;648476;212;32127;-73
2021/11/19 02:00:30;;;;;;;1.70;1.20;;;0.60;1.40;;;1.35;100.00;96715.90;647678;213;31535;-71
2021/11/19 02:03:12;;;;;;;1.10;1.08;;;0.30;1.40;;;1.22;100.00;96714.20;630836;218;31762;-72
2021/11/19 02:06:01;;;;;;;2.45;2.35;;;0.10;1.40;;;1.12;100.00;96711.07;646751;212;31682;-73
2021/11/19 02:08:43;;;;;;;2.55;1.75;;;0.30;1.40;;;1.17;100.00;96710.94;617635;226;32254;-73
2021/11/19 02:11:41;;;;;;;1.50;1.40;;;0.40;1.40;;;1.19;100.00;96708.91;647691;216;42803;-73
2021/11/19 02:16:57;;;;;;;1.30;0.88;;;0.40;1.40;;;1.22;100.00;96692.73;618122;226;32121;-73
2021/11/19 02:19:46;;;;;;;1.45;1.00;;;0.40;1.40;;;1.20;100.00;96700.08;647657;212;32377;-73
2021/11/19 02:22:30;;;;;;;2.05;0.77;;;0.40;1.40;;;1.22;100.00;96707.47;618604;226;31785;-73
2021/11/19 02:25:12;;;;;;;4.50;2.10;;;0.30;1.40;;;1.25;100.00;96712.64;645486;212;31590;-71
2021/11/19 02:27:56;;;;;;;2.20;2.10;;;0.30;1.40;;;1.19;100.00;96719.22;646727;212;31548;-71
2021/11/19 02:30:44;;;;;;;2.10;1.30;;;0.20;1.40;;;1.16;100.00;96726.81;647105;212;31575;-73
2021/11/19 02:35:53;;;;;;;5.22;1.10;;;-0.10;1.40;;;0.82;100.00;96736.25;646395;216;31573;-72
2021/11/19 02:38:53;;;;;;;0.88;0.80;;;-0.30;1.40;;;0.80;100.00;96730.21;645160;216;42171;-70
2021/11/19 02:41:36;;;;;;;1.00;0.90;;;-0.40;1.40;;;0.80;100.00;96725.89;643731;212;31759;-71
2021/11/19 02:44:16;;;;;;;1.60;0.80;;;-0.20;1.40;;;1.00;100.00;96722.47;619319;225;37159;-72
2021/11/19 02:46:58;;;;;;;2.65;1.80;;;0.00;1.40;;;1.04;100.00;96715.42;646930;216;31503;-73
2021/11/19 02:49:39;;;;;;;1.95;1.73;;;0.00;1.40;;;0.88;100.00;96716.39;645493;216;31526;-73
2021/11/19 02:52:24;;;;;;;1.50;0.98;;;-0.30;1.40;;;0.70;100.00;96718.23;645881;212;31549;-72
2021/11/19 02:55:06;;;;;;;1.62;1.52;;;-0.40;1.40;;;0.59;100.00;96718.38;645006;212;31569;-73
2021/11/19 02:57:47;;;;;;;1.80;1.40;;;-0.50;1.40;;;0.66;100.00;96718.98;646543;216;31682;-73
2021/11/19 03:00:47;;;;;;;3.00;2.65;;;-0.30;1.40;;;0.68;100.00;96718.78;647461;212;32657;-72
2021/11/19 03:03:29;;;;;;;1.70;1.60;;;-0.40;1.40;;;0.65;100.00;96723.95;645961;212;31593;-72
2021/11/19 03:06:13;;;;;;;1.40;1.30;;;-0.50;1.40;;;0.57;100.00;96726.14;646860;216;32390;-73
2021/11/19 03:08:55;;;;;;;2.35;1.73;;;-0.40;1.40;;;0.67;100.00;96726.38;644730;216;32177;-73
2021/11/19 03:11:37;;;;;;;1.10;0.80;;;-0.30;1.40;;;0.64;100.00;96724.22;618889;222;32491;-73
2021/11/19 03:14:18;;;;;;;0.50;0.50;;;-0.50;1.40;;;0.56;100.00;96728.61;646992;212;32073;-73
2021/11/19 03:17:03;;;;;;;1.73;0.95;;;-0.50;1.40;;;0.71;100.00;96726.00;646504;212;31600;-73
2021/11/19 03:19:44;;;;;;;1.58;1.48;;;-0.20;1.40;;;0.61;100.00;96728.58;645758;212;31722;-74
2021/11/19 03:22:26;;;;;;;0.88;0.80;;;-0.40;1.40;;;0.66;100.00;96739.70;648399;212;31841;-74
2021/11/19 03:25:08;;;;;;;0.73;0.70;;;-0.60;1.40;;;0.47;100.00;96743.02;646236;216;42240;-74
2021/11/19 03:27:49;;;;;;;1.30;1.20;;;-0.60;1.40;;;0.38;100.00;96736.47;618811;226;32125;-73
2021/11/19 03:30:31;;;;;;;4.30;1.20;;;-0.70;1.40;;;0.49;100.00;96733.60;620598;226;32176;-73
2021/11/19 03:35:51;;;;;;;1.45;0.90;;;-0.50;1.40;;;0.53;100.00;96731.66;646450;216;31631;-74
2021/11/19 03:38:33;;;;;;;0.70;0.55;;;-0.40;1.40;;;0.47;100.00;96739.63;647490;216;31495;-73
2021/11/19 03:41:15;;;;;;;0.80;0.80;;;-0.60;1.40;;;0.41;100.00;96743.59;645025;216;31796;-74
2021/11/19 03:44:13;;;;;;;1.00;0.80;;;-0.70;1.40;;;0.36;100.00;96737.08;646182;212;31628;-73
2021/11/19 03:47:00;;;;;;;0.80;0.80;;;-0.60;1.40;;;0.67;100.00;96733.42;647291;216;32335;-74
2021/11/19 03:49:41;;;;;;;2.70;1.80;;;0.00;1.40;;;0.72;100.00;96730.48;647524;212;31762;-74
2021/11/19 03:52:23;;;;;;;2.30;2.10;;;0.00;1.40;;;0.79;100.00;96735.98;646635;216;31951;-74
2021/11/19 03:55:10;;;;;;;2.10;0.93;;;0.00;1.40;;;0.79;100.00;96734.34;644694;212;31676;-73
2021/11/19 03:57:52;;;;;;;2.75;1.83;;;-0.10;1.40;;;0.79;100.00;96731.72;646111;212;31600;-73
2021/11/19 04:00:40;;;;;;;2.25;1.95;;;0.10;1.40;;;0.82;100.00;96720.18;646639;212;31551;-73
2021/11/19 04:03:21;;;;;;;1.60;1.50;;;0.10;1.40;;;0.83;100.00;96728.98;646415;212;31580;-74
2021/11/19 04:06:03;;;;;;;0.90;0.90;;;0.00;1.40;;;0.80;100.00;96732.48;646435;216;31635;-74
2021/11/19 04:08:45;;;;;;;0.90;0.82;;;0.00;1.40;;;0.81;100.00;96730.81;646385;212;31911;-74
2021/11/19 04:11:30;;;;;;;1.35;0.75;;;-0.10;1.40;;;0.79;100.00;96725.70;646953;216;42724;-70
2021/11/19 04:14:11;;;;;;;1.30;1.10;;;0.00;1.40;;;0.87;100.00;96723.22;646601;212;31553;-73
2021/11/19 04:16:53;;;;;;;2.90;1.30;;;0.10;1.40;;;0.89;100.00;96718.11;647569;212;31564;-73
2021/11/19 04:19:35;;;;;;;1.90;1.70;;;0.10;1.40;;;0.91;100.00;96712.69;618721;226;43117;-74
2021/11/19 04:22:17;;;;;;;1.50;0.70;;;0.20;1.40;;;0.95;100.00;96709.75;619922;226;31941;-73
2021/11/19 04:25:00;;;;;;;1.92;1.80;;;0.20;1.40;;;0.96;100.00;96706.98;645313;212;31622;-73
2021/11/19 04:27:39;;;;;;;0.95;0.95;;;0.20;1.40;;;0.97;100.00;96706.92;646081;212;31560;-73
2021/11/19 04:30:22;;;;;;;2.40;0.83;;;0.20;1.40;;;0.98;100.00;96703.70;647328;216;31580;-73
2021/11/19 04:35:52;;;;;;;0.70;0.70;;;0.20;1.40;;;0.94;100.00;96707.77;646138;216;31664;-72
2021/11/19 04:38:33;;;;;;;2.00;1.40;;;0.10;1.40;;;0.85;100.00;96707.31;645907;216;42754;-71
2021/11/19 04:41:14;;;;;;;3.50;1.30;;;0.00;1.40;;;0.80;100.00;96707.70;645043;212;32277;-73
2021/11/19 04:43:59;;;;;;;1.15;0.80;;;0.00;1.40;;;0.81;100.00;96697.70;646648;216;31949;-72
2021/11/19 04:46:41;;;;;;;2.15;1.90;;;0.10;1.40;;;0.82;100.00;96696.77;646171;216;31666;-73
2021/11/19 04:49:23;;;;;;;0.80;0.80;;;0.10;1.40;;;0.83;100.00;96700.25;646008;212;31533;-73
2021/11/19 04:52:05;;;;;;;2.10;1.60;;;0.20;1.40;;;0.87;100.00;96702.53;646646;216;31632;-73
2021/11/19 04:54:46;;;;;;;3.30;2.35;;;0.20;1.40;;;0.89;100.00;96706.74;646297;216;31876;-73
2021/11/19 04:57:28;;;;;;;2.22;0.95;;;0.20;1.40;;;0.89;100.00;96717.45;619019;222;31965;-72
2021/11/19 05:00:13;;;;;;;3.10;1.60;;;0.00;1.40;;;0.86;100.00;96720.98;646852;216;32165;-73
2021/11/19 05:02:55;;;;;;;0.90;0.80;;;0.00;1.40;;;0.78;100.00;96723.82;646749;212;32219;-74
2021/11/19 05:05:40;;;;;;;3.00;1.50;;;0.00;1.40;;;0.94;100.00;96715.91;646215;213;31587;-73
2021/11/19 05:08:21;;;;;;;1.70;1.20;;;0.20;1.40;;;1.12;100.00;96713.73;647825;216;31660;-72
2021/11/19 05:11:06;;;;;;;0.80;0.80;;;0.40;1.40;;;1.24;100.00;96713.67;647077;216;31563;-73
2021/11/19 05:13:48;;;;;;;2.70;1.02;;;0.50;1.40;;;1.27;100.00;96715.48;645862;216;31902;-72
2021/11/19 05:16:29;;;;;;;0.65;0.65;;;0.60;1.40;;;1.26;100.00;96714.23;647495;212;31591;-71
2021/11/19 05:19:11;;;;;;;2.15;1.52;;;0.60;1.40;;;1.33;100.00;96718.89;647753;212;42153;-73
2021/11/19 05:21:53;;;;;;;1.05;1.05;;;0.60;1.40;;;1.38;100.00;96718.56;647320;216;31554;-73
2021/11/19 05:24:34;;;;;;;2.55;1.20;;;0.70;1.40;;;1.36;100.00;96715.72;647865;212;31512;-72
2021/11/19 05:27:19;;;;;;;1.67;1.10;;;0.70;1.40;;;1.36;100.00;96710.86;647063;216;31539;-73
2021/11/19 05:30:01;;;;;;;1.65;0.98;;;0.70;1.40;;;1.36;100.00;96710.86;645818;216;31742;-73
2021/11/19 05:32:42;;;;;;;1.00;1.00;;;0.70;1.40;;;1.36;100.00;96711.23;645911;216;32850;-73
2021/11/19 05:35:51;;;;;;;2.30;0.70;;;0.80;1.40;;;1.35;100.00;96704.03;646454;212;31581;-74
2021/11/19 05:38:37;;;;;;;0.95;0.88;;;0.80;1.40;;;1.40;100.00;96701.30;645598;212;42967;-73
2021/11/19 05:41:15;;;;;;;1.90;1.30;;;0.80;1.40;;;1.41;100.00;96705.59;617236;222;33117;-73
2021/11/19 05:43:57;;;;;;;1.23;1.05;;;0.80;1.40;;;1.43;100.00;96702.75;618296;225;32067;-73
2021/11/19 05:46:41;;;;;;;1.30;1.08;;;0.80;1.40;;;1.44;100.00;96704.06;645824;216;31737;-73
2021/11/19 05:49:23;;;;;;;2.80;1.30;;;0.80;1.40;;;1.34;100.00;96694.08;646079;212;31509;-74
2021/11/19 05:52:07;;;;;;;1.65;1.55;;;0.80;1.40;;;1.24;100.00;96689.19;647588;216;32419;-74
2021/11/19 05:54:49;;;;;;;1.50;0.93;;;0.70;1.40;;;1.22;100.00;96685.20;646308;216;32121;-73
2021/11/19 05:57:30;;;;;;;1.50;0.55;;;0.60;1.40;;;1.19;100.00;96690.80;645928;212;31527;-73
2021/11/19 06:00:12;;;;;;;0.70;0.70;;;0.60;1.40;;;1.14;100.00;96691.16;646685;216;32170;-70
2021/11/19 06:02:54;;;;;;;1.23;1.10;;;0.50;1.40;;;1.19;100.00;96689.04;644683;216;32169;-74
2021/11/19 06:05:36;;;;;;;1.80;1.60;;;0.50;1.40;;;1.28;100.00;96688.70;646403;216;31666;-73
2021/11/19 06:08:17;;;;;;;2.65;0.88;;;0.60;1.40;;;1.26;100.00;96682.70;645644;216;32175;-73
2021/11/19 06:10:59;;;;;;;1.10;1.10;;;0.30;1.40;;;1.19;100.00;96685.13;646250;216;32738;-72
2021/11/19 06:13:43;;;;;;;0.85;0.85;;;0.40;1.40;;;1.14;100.00;96690.96;646843;212;32128;-72
2021/11/19 06:16:24;;;;;;;2.50;1.10;;;0.40;1.40;;;1.08;100.00;96691.36;646494;216;31563;-73
2021/11/19 06:19:08;;;;;;;1.00;0.80;;;0.40;1.40;;;1.04;100.00;96695.23;646324;216;32222;-73
2021/11/19 06:21:51;;;;;;;1.87;1.67;;;0.20;1.40;;;1.09;100.00;96701.16;646280;216;31955;-73
2021/11/19 06:24:34;;;;;;;2.60;2.40;;;0.20;1.40;;;1.05;100.00;96707.12;645070;216;31594;-72
2021/11/19 06:28:23;;;;;;;2.40;1.20;;;0.10;1.40;;;1.00;100.00;96714.14;619320;226;31904;-73
2021/11/19 06:31:05;;;;;;;1.62;1.52;;;0.00;1.40;;;0.99;100.00;96717.22;618016;226;31910;-73
2021/11/19 06:35:50;;;;;;;1.30;1.20;;;0.10;1.40;;;1.09;100.00;96724.27;619320;226;31909;-73
2021/11/19 06:38:32;;;;;;;4.30;2.20;;;0.10;1.40;;;1.13;100.00;96722.31;646863;212;31532;-72
2021/11/19 06:41:14;;;;;;;1.30;1.20;;;0.20;1.40;;;1.16;100.00;96730.56;644415;216;31686;-71
2021/11/19 06:43:59;;;;;;;2.20;0.90;;;0.30;1.40;;;1.16;100.00;96727.99;646703;212;32124;-74
2021/11/19 06:46:41;;;;;;;4.47;1.65;;;0.20;1.40;;;1.31;100.00;96726.98;646275;212;32082;-74
2021/11/19 06:49:23;;;;;;;1.95;1.80;;;0.60;1.40;;;1.47;100.00;96729.68;645758;212;31593;-73
2021/11/19 06:52:05;;;;;;;1.70;1.10;;;0.90;1.40;;;1.54;100.00;96722.66;646629;212;31534;-73
2021/11/19 06:54:50;;;;;;;1.10;1.00;;;1.00;1.40;;;1.63;100.00;96727.66;646016;216;31490;-72
2021/11/19 06:57:31;;;;;;;2.30;1.70;;;1.00;1.40;;;1.63;100.00;96736.66;646563;216;31575;-72
2021/11/19 07:00:17;;;;;;;1.75;0.90;;;1.00;1.40;;;1.68;100.00;96742.39;646243;216;31597;-73
2021/11/19 07:02:59;;;;;;;2.42;1.77;;;1.00;1.40;;;1.70;100.00;96746.95;617234;226;33910;-73
2021/11/19 07:05:40;;;;;;;0.82;0.82;;;1.00;1.40;;;1.78;100.00;96757.92;647840;212;31554;-72
2021/11/19 07:08:22;;;;;;;0.80;0.80;;;1.00;1.40;;;1.86;100.00;96760.67;647528;216;31548;-73
2021/11/19 07:11:05;;;;;;;2.40;1.40;;;1.00;1.40;;;2.07;100.00;96768.07;646192;212;31987;-73
2021/11/19 07:13:49;;;;;;;5.18;1.25;;;1.00;1.40;;;2.25;100.00;96770.59;646027;216;32105;-70
2021/11/19 07:16:28;;;;;;;3.40;1.30;;;1.00;1.40;;;2.17;100.00;96768.06;645795;216;32151;-70
2021/11/19 07:19:10;;;;;;;2.72;0.80;;;1.00;1.40;;;2.35;100.00;96769.45;645502;212;31603;-73
2021/11/19 07:21:53;;;;;;;0.80;0.80;;;1.00;1.40;;;2.32;100.00;96770.19;646748;212;42728;-72
2021/11/19 07:24:33;;;;;;;3.55;0.95;;;1.10;1.40;;;2.34;100.00;96769.01;647092;212;31527;-72
2021/11/19 07:27:15;;;;;;;1.77;1.67;;;1.30;1.40;;;2.38;100.00;96772.41;646097;212;31590;-73
2021/11/19 07:29:57;;;;;;;2.37;1.30;;;1.40;1.40;;;2.33;100.00;96771.81;645827;216;31561;-72
2021/11/19 07:32:38;;;;;;;2.90;1.30;;;1.40;1.40;;;2.40;100.00;96774.38;645258;212;31498;-72
2021/11/19 07:35:51;;;;;;;2.20;0.90;;;1.50;1.40;;;2.15;100.00;96766.71;644794;212;32133;-71
2021/11/19 07:38:36;;;;;;;2.45;1.10;;;1.40;1.40;;;2.14;100.00;96765.30;645723;216;31561;-72
2021/11/19 07:41:23;;;;;;;2.20;1.60;;;1.40;1.40;;;2.21;100.00;96762.83;644918;216;31588;-74
2021/11/19 07:44:10;;;;;;;0.90;0.90;;;1.50;1.40;;;2.20;100.00;96760.04;644604;216;31995;-73
2021/11/19 07:46:52;;;;;;;1.50;1.20;;;1.50;1.40;;;2.22;100.00;96762.91;646989;212;31576;-72
2021/11/19 07:49:33;;;;;;;1.30;1.20;;;1.60;1.40;;;2.28;100.00;96767.17;644538;216;31919;-72
2021/11/19 07:52:15;;;;;;;3.40;2.22;;;1.60;1.40;;;2.40;100.00;96768.98;645991;216;31531;-71
2021/11/19 07:55:02;;;;;;;1.27;1.10;;;1.70;1.40;;;2.48;100.00;96771.94;618899;222;31926;-72
2021/11/19 07:57:41;;;;;;;1.50;1.40;;;1.80;1.40;;;2.46;100.00;96766.47;645871;212;31655;-70
2021/11/19 08:00:24;;;;;;;1.80;1.40;;;1.70;1.40;;;2.40;100.00;96763.42;646083;214;31600;-71
2021/11/19 08:03:05;;;;;;;1.60;1.10;;;1.70;1.40;;;2.50;100.00;96766.00;647324;216;31623;-73
2021/11/19 08:05:47;;;;;;;3.03;1.40;;;1.70;1.40;;;2.58;100.00;96769.15;644799;216;31570;-71
2021/11/19 08:08:29;;;;;;;1.60;0.75;;;1.80;1.40;;;2.77;100.00;96768.77;646212;212;31564;-72
2021/11/19 08:11:13;;;;;;;1.87;1.50;;;1.90;1.40;;;2.87;100.00;96767.44;646731;216;31532;-72
2021/11/19 08:13:55;;;;;;;2.20;2.10;;;2.00;1.40;;;2.86;100.00;96760.92;646977;212;31591;-69
2021/11/19 08:16:39;;;;;;;2.33;1.58;;;2.00;1.40;;;3.03;100.00;96761.98;646334;212;42161;-69
2021/11/19 08:19:23;;;;;;;0.85;0.77;;;2.10;1.40;;;3.02;100.00;96756.95;646034;212;31659;-71
2021/11/19 08:22:08;;;;;;;3.20;1.30;;;2.10;1.40;;;3.01;100.00;96758.16;645059;216;31582;-70
2021/11/19 08:24:49;;;;;;;2.20;1.10;;;2.10;1.40;;;3.44;100.00;96764.19;646323;216;31526;-71
2021/11/19 08:27:31;;;;;;;1.50;1.20;;;2.40;1.40;;;3.62;100.00;96767.16;646148;212;31562;-69
2021/11/19 08:30:13;;;;;;;3.10;1.62;;;2.50;1.40;;;3.44;100.00;96770.30;645798;216;31575;-70
2021/11/19 08:32:55;;;;;;;0.98;0.98;;;2.50;1.40;;;3.57;100.00;96771.77;646242;212;32121;-72
2021/11/19 08:35:52;;;;;;;1.80;1.70;;;2.60;1.40;;;3.80;100.00;96775.28;641941;216;31584;-71
2021/11/19 08:38:34;;;;;;;1.25;1.15;;;2.90;1.40;;;4.65;100.00;96767.61;648414;212;31590;-73
2021/11/19 08:41:15;;;;;;;1.17;1.05;;;3.50;1.40;;;5.20;100.00;96769.53;644056;216;31748;-71
2021/11/19 08:43:57;;;;;;;2.03;1.83;;;4.00;1.40;;;5.14;100.00;96773.23;645848;216;31571;-72
2021/11/19 08:46:39;;;;;;;1.80;1.70;;;4.00;1.40;;;5.41;100.00;96770.22;644865;216;31664;-69
2021/11/19 08:49:22;;;;;;;2.70;2.50;;;4.10;1.40;;;5.32;100.00;96768.79;618769;226;32042;-70
2021/11/19 08:52:04;;;;;;;1.35;1.25;;;4.00;1.40;;;5.07;100.00;96761.58;645761;212;31728;-71
2021/11/19 08:54:46;;;;;;;1.70;1.60;;;3.90;1.40;;;5.48;100.00;96756.64;646956;216;31595;-70
2021/11/19 08:57:27;;;;;;;2.70;2.07;;;4.90;1.40;;;7.39;100.00;96758.23;641789;219;31701;-72
2021/11/19 09:00:11;;;;;;;1.60;1.50;;;7.10;1.40;;;8.75;100.00;96751.89;619461;225;31921;-69
2021/11/19 09:02:53;;;;;;;2.97;2.13;;;7.20;1.40;;;8.07;100.00;96767.70;619173;226;32463;-70
2021/11/19 09:05:35;;;;;;;3.62;2.58;;;6.70;1.40;;;9.01;100.00;96765.66;646541;212;31673;-70
2021/11/19 09:08:16;;;;;;;4.13;2.20;;;7.50;1.40;;;9.40;100.00;96775.32;618773;222;32011;-70
2021/11/19 09:10:58;;;;;;;3.25;2.70;;;8.20;1.40;;;11.27;100.00;96779.22;646507;212;31562;-71
2021/11/19 09:16:14;;;;;;;3.62;2.50;;;9.10;1.40;;;12.90;100.00;96785.95;647403;212;31604;-71
2021/11/19 09:19:10;;;;;;;4.40;2.50;;;8.90;1.40;;;12.26;97.51;96782.22;645955;212;31587;-69
2021/11/19 09:21:57;;;;;;;3.85;2.28;;;8.10;1.40;;;11.37;100.00;96781.45;646029;216;31559;-71
2021/11/19 09:24:39;;;;;;;4.60;2.40;;;7.20;1.40;;;11.53;100.00;96785.70;646944;216;31575;-70
2021/11/19 09:27:23;;;;;;;4.03;2.30;;;8.10;1.40;;;13.52;100.00;96773.81;645866;216;31661;-70
2021/11/19 09:30:14;;;;;;;3.45;2.40;;;9.70;1.40;;;14.19;100.00;96780.52;646614;216;31718;-71
2021/11/19 09:32:51;;;;;;;3.30;2.35;;;9.90;1.40;;;13.97;100.00;96778.30;645926;212;31553;-71
2021/11/19 09:35:51;;;;;;;2.50;2.20;;;10.00;1.40;;;12.98;87.31;96778.47;646280;212;31577;-71
2021/11/19 09:38:33;;;;;;;2.30;2.00;;;8.90;1.40;;;13.58;96.38;96773.72;645388;212;31530;-71
2021/11/19 09:41:50;;;;;;;4.32;2.80;;;9.30;1.40;;;13.48;93.19;96777.95;645018;212;32080;-71
2021/11/19 09:44:37;;;;;;;3.80;2.60;;;9.40;1.40;;;15.03;100.00;96770.08;646088;216;31556;-71
2021/11/19 09:47:46;;;;;;;2.80;1.83;;;11.10;1.40;;;14.91;83.56;96767.40;647027;212;31742;-70
2021/11/19 09:50:56;;;;;;;3.05;1.80;;;9.80;1.40;;;13.97;84.37;96768.25;646856;216;31546;-70
2021/11/19 09:54:12;;;;;;;2.30;2.03;;;10.80;1.40;;;13.36;90.39;96768.25;645842;216;31580;-72
2021/11/19 09:56:55;;;;;;;3.30;2.60;;;10.30;1.40;;;12.23;95.00;96767.34;646973;212;31563;-71
2021/11/19 09:59:46;;;;;;;3.05;2.33;;;9.70;1.40;;;12.92;97.94;96766.94;629958;217;31714;-71
2021/11/19 10:02:38;;;;;;;3.72;3.33;;;9.40;1.40;;;10.68;100.00;96772.25;646603;216;31587;-71
2021/11/19 10:05:46;;;;;;;4.50;2.60;;;8.30;1.40;;;10.66;100.00;96767.31;647419;212;31565;-71
2021/11/19 10:08:42;;;;;;;2.28;2.05;;;7.90;1.40;;;10.63;100.00;96769.37;646723;216;31577;-71
2021/11/19 10:14:29;;;;;;;2.15;1.95;;;7.70;1.40;;;9.62;100.00;96767.95;646562;213;31556;-70
2021/11/19 10:18:44;;;;;;;3.30;2.20;;;7.30;1.40;;;9.19;100.00;96763.94;645406;212;31639;-70
2021/11/19 10:24:01;;;;;;;3.30;2.50;;;7.70;1.40;;;9.09;100.00;96761.75;618140;222;31944;-70
2021/11/19 10:26:42;;;;;;;2.80;1.98;;;7.50;1.40;;;8.71;100.00;96752.70;646532;212;32194;-70
2021/11/19 10:31:03;;;;;;;3.20;2.50;;;7.50;1.40;;;8.84;100.00;96746.66;646358;212;31603;-69
2021/11/19 10:36:17;;;;;;;3.97;2.42;;;7.40;1.40;;;9.42;100.00;96739.81;646375;212;31882;-72
2021/11/19 10:39:34;;;;;;;6.07;3.20;;;7.90;1.40;;;9.60;100.00;96744.13;617557;222;42562;-70
2021/11/19 10:42:39;;;;;;;3.47;2.30;;;8.00;1.40;;;9.61;100.00;96745.53;640445;212;42747;-70
2021/11/19 10:45:35;;;;;;;3.53;2.53;;;8.10;1.40;;;9.83;100.00;96735.16;646539;212;42176;-71
2021/11/19 10:48:20;;;;;;;3.80;2.33;;;8.40;1.40;;;10.60;100.00;96732.41;645882;212;42182;-70
2021/11/19 10:51:23;;;;;;;3.10;2.70;;;9.20;1.40;;;11.26;100.00;96732.59;645892;216;42207;-70
2021/11/19 10:54:27;;;;;;;5.07;3.00;;;9.60;1.40;;;11.66;100.00;96738.27;646010;212;31603;-71
2021/11/19 10:57:32;;;;;;;4.10;2.50;;;9.80;1.40;;;12.86;100.00;96723.39;647411;212;33271;-71
2021/11/19 11:00:32;;;;;;;3.87;2.80;;;10.70;1.40;;;12.34;97.09;96726.77;647444;212;39947;-71
2021/11/19 11:03:15;;;;;;;4.85;3.20;;;9.30;1.40;;;11.96;100.00;96727.81;647196;216;42223;-70
2021/11/19 11:05:57;;;;;;;3.20;2.80;;;9.50;1.40;;;12.42;100.00;96728.45;645879;212;31664;-71
2021/11/19 11:08:39;;;;;;;5.93;2.65;;;10.00;1.40;;;12.89;96.22;96730.49;635507;217;31729;-70
2021/11/19 11:11:30;;;;;;;3.83;2.95;;;10.50;1.40;;;12.21;96.78;96732.45;645659;216;31575;-70
2021/11/19 11:14:15;;;;;;;3.87;2.37;;;10.60;1.40;;;14.07;92.88;96728.30;646893;216;31578;-70
2021/11/19 11:16:57;;;;;;;3.50;2.65;;;11.50;1.40;;;14.01;86.80;96734.12;646753;212;32107;-70
2021/11/19 11:19:38;;;;;;;3.60;2.78;;;11.50;1.40;;;13.02;88.21;96729.24;645818;216;32083;-71
2021/11/19 11:22:21;;;;;;;4.35;2.90;;;10.70;1.40;;;13.33;89.87;96718.77;618957;222;31966;-71
2021/11/19 11:25:03;;;;;;;3.22;2.65;;;11.30;1.40;;;13.94;87.62;96705.58;645856;216;31727;-70
2021/11/19 11:28:12;;;;;;;3.47;2.65;;;11.40;1.40;;;13.52;85.90;96703.08;647078;216;32809;-71
2021/11/19 11:30:54;;;;;;;3.33;2.67;;;11.10;1.40;;;13.93;89.72;96695.75;647451;212;31537;-73
2021/11/19 11:36:01;;;;;;;3.67;2.55;;;12.20;1.40;;;13.12;83.66;96689.21;646700;216;31648;-71
2021/11/19 11:38:52;;;;;;;3.20;2.20;;;11.10;1.40;;;12.61;90.44;96683.15;646152;212;32249;-70
2021/11/19 11:41:40;;;;;;;2.60;2.40;;;10.30;1.40;;;13.53;89.66;96667.33;643350;216;31692;-71
2021/11/19 11:44:23;;;;;;;4.30;2.40;;;10.40;1.40;;;12.31;90.55;96666.86;647361;212;31556;-70
2021/11/19 11:47:07;;;;;;;3.35;2.22;;;9.70;1.40;;;11.69;96.00;96666.65;646467;212;31537;-71
2021/11/19 11:49:52;;;;;;;2.72;2.30;;;9.40;1.40;;;10.95;100.00;96663.16;619409;226;32257;-70
2021/11/19 11:52:54;;;;;;;3.00;2.15;;;8.90;1.40;;;10.71;100.00;96661.80;632135;217;31738;-71
2021/11/19 11:55:40;;;;;;;2.50;1.62;;;9.30;1.40;;;11.82;97.93;96659.82;647211;212;31567;-70
2021/11/19 11:58:33;;;;;;;2.60;2.05;;;10.10;1.40;;;11.34;98.94;96653.00;646278;212;32091;-73
2021/11/19 12:04:29;;;;;;;3.00;1.98;;;10.10;1.40;;;11.83;100.00;96649.11;647590;212;31601;-71
2021/11/19 12:07:35;;;;;;;3.78;2.25;;;10.50;1.40;;;11.67;99.59;96652.27;646572;212;33705;-72
2021/11/19 12:10:27;;;;;;;2.62;2.30;;;9.80;1.40;;;10.76;100.00;96657.39;646335;214;42692;-70
2021/11/19 12:13:30;;;;;;;3.28;2.45;;;9.10;1.40;;;10.53;100.00;96659.16;645994;212;31793;-71
2021/11/19 12:16:42;;;;;;;2.53;1.60;;;9.30;1.40;;;10.85;100.00;96660.59;646364;216;43077;-71
2021/11/19 12:19:42;;;;;;;2.30;1.80;;;9.30;1.40;;;11.14;100.00;96653.39;645560;212;42167;-70
2021/11/19 12:25:34;;;;;;;2.40;1.70;;;10.70;1.40;;;12.61;92.61;96653.00;646904;212;32145;-70